Airfield :
LOGIN :

Register | Disclaimer

   EN    FR    IT 

 










Legend :    VFR   Marginal VFR   IFR   Intensive IFR   Very Intensive IFR
Visi :
Ceiling :
>= 8 km
>= 3000ft
5 to 8 km
1000 to 3000 ft
1500m to 5 km
500 to 1000 ft
800 to 1500m
200 to 500 ft
< 800m
< 200 ft
Symbols :   Thunderstorms  Fog  Heavy snow  Heavy precipitations  Wind > 20 kt
SIGMETs :     Misc.  Thunderstorms  Icing  Turbulence  Mountain Waves  Volcanic Ashes







- Airport Elevation : 1860 ft
- IATA code : GRX


LEGR - Granada

CURRENT METAR :
  • 201730Z 22010KT 9999 FEW050 30/17 Q1016

EXPIRED METARs :
  • 201700Z 24009KT 210V280 9999 FEW050 31/15 Q1016
  • 201630Z 23009KT 200V260 9999 FEW050TCU 31/15 Q1016
  • 201600Z 18012KT 150V210 9999 SCT050TCU 31/16 Q1017
  • 201530Z VRB03G13KT 9999 SCT050TCU 34/15 Q1016
  • 201500Z VRB03KT 9999 FEW050TCU FEW060CB 34/12 Q1017

TAF TAF LEGR
Valid from the 20 at 15:00 until the 21 at 15:00 UTC


201400Z 2015/2115 09003KT CAVOK TX34/2115Z TN17/2106Z
PROB40
TEMPO 2015/2020 SHRA FEW035TCU
PROB30
TEMPO 2015/2020 12015G25KT TSRA FEW040CB
No reported NOTAMs for that airfield.
1 SIGMET reported for the Madrid FIR (LECM) :
 
Embedded thunderstorms
LECM SIGMET 2 VALID 201630/201830 LEVA
LECM MADRID FIR/UIR EMBD TS OBS AT 1614Z W OF LINE N3716 W00416 - N3855 W00415 TOP FL400 MOV NE NC=



MET'MAP, your aeronautical weather chart ! - Copyright ORBIFLY December 2007 - Disclaimer

ORBIFLY MET'MAP TEAM :

Programming & Development : Alexandra Zaïnal
Concept & Development : Baudouin d'Aumeries
Co-Development & Prog : Marc-Olivier Méhu
Technical & hardware support : Manuel Goepfert

Contact : metmap@orbifly.com




SOURCES & CREDITS :

   NOAA